Time;durP1;ratioP1;P1;durP2;ratioP2;P2;SDS_P1;SDS_P2;PMS_P1;PMS_P2;Temp;Humidity;BMP_temperature;BMP_pressure;BME280_temperature;BME280_humidity;BME280_pressure;Samples;Min_cycle;Max_cycle;Signal;HPM_P1;HPM_P2
2022/03/24 12:00:15;;;;;;;6.10;1.58;;;18.80;97.00;;;;;;3318756;26;20089;-73
2022/03/24 12:02:46;;;;;;;7.43;2.13;;;18.80;97.00;;;;;;5080496;28;20595;-73
2022/03/24 12:05:13;;;;;;;5.43;1.67;;;18.80;97.00;;;;;;5092132;28;20044;-73
2022/03/24 12:07:40;;;;;;;7.22;2.20;;;18.80;97.00;;;;;;5063719;28;20474;-73
2022/03/24 12:10:13;;;;;;;6.90;1.50;;;18.80;97.10;;;;;;5095385;28;20675;-72
2022/03/24 12:13:01;;;;;;;5.07;1.83;;;18.80;97.10;;;;;;5078851;28;20063;-72
2022/03/24 12:15:28;;;;;;;7.45;1.60;;;18.80;97.10;;;;;;5094107;28;20028;-72
2022/03/24 12:18:05;;;;;;;4.82;1.70;;;18.80;97.10;;;;;;5093894;28;20432;-73
2022/03/24 12:20:42;;;;;;;2.50;1.55;;;18.80;97.00;;;;;;5078490;28;20024;-73
2022/03/24 12:23:10;;;;;;;3.22;1.40;;;18.80;97.10;;;;;;5113066;28;20107;-72
2022/03/24 12:25:37;;;;;;;2.13;1.50;;;18.80;97.10;;;;;;5113086;28;20035;-72
2022/03/24 12:28:06;;;;;;;4.30;1.55;;;18.80;97.10;;;;;;5110727;28;20115;-72
2022/03/24 12:30:49;;;;;;;5.32;1.73;;;18.80;97.10;;;;;;5094712;28;20051;-72
2022/03/24 12:33:18;;;;;;;4.00;1.42;;;18.80;97.20;;;;;;5094274;28;20629;-72
2022/03/24 12:35:47;;;;;;;5.63;1.35;;;18.80;97.20;;;;;;5078424;28;20036;-72
2022/03/24 12:38:35;;;;;;;4.00;1.52;;;18.80;97.20;;;;;;5112322;28;20035;-73
2022/03/24 12:41:05;;;;;;;6.28;1.55;;;18.80;97.20;;;;;;5112545;28;20343;-72
2022/03/24 12:44:02;;;;;;;8.10;1.35;;;18.80;97.20;;;;;;5111867;28;20038;-72
2022/03/24 12:46:34;;;;;;;6.65;1.80;;;18.80;97.30;;;;;;5091320;28;20082;-72
2022/03/24 12:49:09;;;;;;;3.15;1.52;;;18.80;97.30;;;;;;5074197;28;20363;-72
2022/03/24 12:51:48;;;;;;;9.40;1.83;;;18.80;97.20;;;;;;5074391;28;20039;-72
2022/03/24 12:54:20;;;;;;;6.10;2.15;;;18.80;97.30;;;;;;5059384;28;20039;-72
2022/03/24 12:56:48;;;;;;;6.07;1.90;;;18.80;97.20;;;;;;5061856;28;20041;-72
2022/03/24 12:59:17;;;;;;;5.25;1.90;;;18.80;97.30;;;;;;5077312;28;20052;-72
2022/03/24 13:01:48;;;;;;;4.32;1.60;;;18.80;97.30;;;;;;5094674;28;20028;-72
2022/03/24 13:04:15;;;;;;;6.55;1.63;;;18.80;97.30;;;;;;5112415;28;20038;-72
2022/03/24 13:06:43;;;;;;;4.88;1.75;;;18.80;97.40;;;;;;5092313;28;20051;-72
2022/03/24 13:09:22;;;;;;;6.80;1.60;;;18.80;97.40;;;;;;5102314;28;20028;-72
2022/03/24 13:12:05;;;;;;;8.25;2.00;;;18.80;97.40;;;;;;5056957;28;20055;-72
2022/03/24 13:14:52;;;;;;;17.98;2.10;;;18.90;97.40;;;;;;5073154;28;20051;-72
2022/03/24 13:17:19;;;;;;;7.20;1.85;;;18.80;97.40;;;;;;5084708;28;20036;-72
2022/03/24 13:19:47;;;;;;;3.90;1.63;;;18.80;97.40;;;;;;5076942;28;20183;-72
2022/03/24 13:22:22;;;;;;;4.38;1.73;;;18.80;97.40;;;;;;5077076;28;20035;-72
2022/03/24 13:25:03;;;;;;;8.82;1.70;;;18.80;97.40;;;;;;5067636;28;20046;-72
2022/03/24 13:27:35;;;;;;;5.43;1.90;;;18.80;97.50;;;;;;5081975;28;20031;-72
2022/03/24 13:30:07;;;;;;;4.88;2.00;;;18.80;97.50;;;;;;5093669;28;20477;-72
2022/03/24 13:32:34;;;;;;;6.40;1.60;;;18.90;97.50;;;;;;5093124;28;20641;-71
2022/03/24 13:35:03;;;;;;;12.40;1.90;;;18.80;97.40;;;;;;5092601;28;20070;-72
2022/03/24 13:37:38;;;;;;;9.20;2.20;;;18.90;97.50;;;;;;5076188;28;20032;-72
2022/03/24 13:40:11;;;;;;;3.15;1.80;;;18.80;97.50;;;;;;5076857;28;20042;-72
2022/03/24 13:42:39;;;;;;;5.40;1.98;;;18.80;97.50;;;;;;5111667;28;20027;-72
2022/03/24 13:45:07;;;;;;;10.70;2.08;;;18.80;97.50;;;;;;5076633;28;20050;-72
2022/03/24 13:47:34;;;;;;;6.68;2.13;;;18.80;97.50;;;;;;5090367;28;20032;-72
2022/03/24 13:50:04;;;;;;;7.88;2.28;;;18.80;97.50;;;;;;5084653;28;20100;-72
2022/03/24 13:52:39;;;;;;;6.00;2.28;;;18.80;97.60;;;;;;5093249;28;20031;-72
2022/03/24 13:55:11;;;;;;;3.45;1.95;;;18.90;97.60;;;;;;5059943;28;20039;-72
2022/03/24 13:58:10;;;;;;;7.22;2.35;;;18.80;97.60;;;;;;5087191;28;20480;-72
2022/03/24 14:00:48;;;;;;;4.97;2.00;;;18.90;97.60;;;;;;5109139;28;20043;-72
2022/03/24 14:03:27;;;;;;;8.55;2.45;;;18.90;97.60;;;;;;5077081;28;20049;-72
2022/03/24 14:06:01;;;;;;;4.50;1.83;;;18.80;97.50;;;;;;5093387;28;20501;-73
2022/03/24 14:08:42;;;;;;;5.32;1.90;;;18.80;97.50;;;;;;5073081;28;20043;-72
2022/03/24 14:11:25;;;;;;;5.72;1.98;;;18.80;97.50;;;;;;5090697;28;20036;-72
2022/03/24 14:13:54;;;;;;;11.82;2.17;;;18.80;97.60;;;;;;5073333;28;20135;-72
2022/03/24 14:16:30;;;;;;;5.68;2.20;;;18.80;97.60;;;;;;5093775;28;20590;-72
2022/03/24 14:19:11;;;;;;;7.22;2.08;;;18.80;97.60;;;;;;5093206;28;20027;-72
2022/03/24 14:21:49;;;;;;;4.60;2.10;;;18.80;97.50;;;;;;5093152;28;20028;-71
2022/03/24 14:24:43;;;;;;;8.00;2.08;;;18.80;97.60;;;;;;5076259;28;20027;-72
2022/03/24 14:27:24;;;;;;;9.45;2.20;;;18.80;97.50;;;;;;5110438;28;20047;-72
2022/03/24 14:30:05;;;;;;;18.10;2.20;;;18.80;97.60;;;;;;5092689;28;20032;-72
2022/03/24 14:32:37;;;;;;;6.45;2.08;;;18.80;97.60;;;;;;5111192;28;20036;-72
2022/03/24 14:35:21;;;;;;;7.30;2.00;;;18.80;97.60;;;;;;5110847;28;20035;-72
2022/03/24 14:37:52;;;;;;;4.43;2.00;;;18.80;97.60;;;;;;5059718;28;20027;-72
2022/03/24 14:40:36;;;;;;;6.45;2.35;;;18.80;97.60;;;;;;5082039;28;20044;-72
2022/03/24 14:43:08;;;;;;;13.43;2.35;;;18.80;97.60;;;;;;5090276;28;20040;-72
2022/03/24 21:04:41;;;;;;;19.73;8.00;;;18.90;97.20;;;;;;5107399;27;20043;-68
2022/03/24 21:07:09;;;;;;;19.77;7.68;;;18.90;97.20;;;;;;5112132;27;20058;-69
2022/03/24 21:09:36;;;;;;;16.17;8.50;;;19.00;97.20;;;;;;5132810;27;20053;-70
2022/03/24 21:12:04;;;;;;;19.20;8.30;;;19.00;97.20;;;;;;5132383;27;20035;-70
2022/03/24 21:14:31;;;;;;;15.80;7.78;;;19.00;97.20;;;;;;5132347;27;20118;-70
2022/03/24 21:16:59;;;;;;;16.40;7.68;;;19.00;97.20;;;;;;5112433;27;20027;-70
2022/03/24 21:19:26;;;;;;;14.38;8.23;;;19.00;97.20;;;;;;5104864;28;20115;-70
2022/03/24 21:21:53;;;;;;;20.05;8.70;;;19.00;97.20;;;;;;5111830;28;20453;-69
2022/03/24 21:24:21;;;;;;;18.65;8.93;;;19.00;97.20;;;;;;5111607;28;20062;-70
2022/03/24 21:26:48;;;;;;;18.30;8.93;;;19.00;97.20;;;;;;5111861;28;20119;-70
2022/03/24 21:29:15;;;;;;;19.00;9.05;;;19.00;97.20;;;;;;5078010;28;20027;-70
2022/03/24 21:31:42;;;;;;;17.00;8.68;;;19.00;97.20;;;;;;5111792;28;20031;-70
2022/03/24 21:34:10;;;;;;;20.48;9.35;;;19.00;97.20;;;;;;5111790;28;20085;-70
2022/03/24 21:36:37;;;;;;;23.83;9.40;;;19.00;97.30;;;;;;5095183;27;20127;-69
2022/03/24 21:39:05;;;;;;;18.88;8.77;;;19.10;97.30;;;;;;5093163;28;20039;-69
2022/03/24 21:41:34;;;;;;;21.08;8.77;;;19.10;97.30;;;;;;5106903;27;20019;-69
2022/03/24 21:44:02;;;;;;;17.60;8.52;;;19.10;97.30;;;;;;5097095;27;20053;-70
2022/03/24 21:46:30;;;;;;;21.38;9.23;;;19.00;97.20;;;;;;5113079;27;20035;-69
2022/03/24 21:48:57;;;;;;;17.50;8.52;;;19.10;97.30;;;;;;5096674;27;20070;-70
2022/03/24 21:51:24;;;;;;;18.67;8.90;;;19.10;97.20;;;;;;5096709;27;20023;-70
2022/03/24 21:53:51;;;;;;;19.25;9.13;;;19.10;97.30;;;;;;5113867;28;20080;-70
2022/03/24 21:56:19;;;;;;;22.73;9.82;;;19.10;97.30;;;;;;5131877;27;20034;-70
2022/03/24 21:58:46;;;;;;;19.13;9.85;;;19.10;97.30;;;;;;5131710;27;20026;-70
2022/03/24 22:01:13;;;;;;;18.60;8.40;;;19.20;97.40;;;;;;5131881;27;20035;-70
2022/03/24 22:03:40;;;;;;;23.88;9.95;;;19.20;97.40;;;;;;5131844;27;20031;-69
2022/03/24 22:06:08;;;;;;;19.73;8.95;;;19.20;97.50;;;;;;5113266;28;20046;-70
2022/03/24 22:08:35;;;;;;;16.73;9.10;;;19.20;97.40;;;;;;5131562;27;20107;-69
2022/03/24 22:11:02;;;;;;;23.98;8.65;;;19.30;97.50;;;;;;5131894;27;20045;-70
2022/03/24 22:13:30;;;;;;;24.08;9.27;;;19.30;97.50;;;;;;5113283;28;20114;-70
2022/03/24 22:15:57;;;;;;;19.40;8.05;;;19.30;97.50;;;;;;5131901;28;20038;-69
2022/03/24 22:18:24;;;;;;;12.05;6.35;;;19.40;97.50;;;;;;5096255;28;20027;-70
2022/03/24 22:20:51;;;;;;;16.02;6.90;;;19.30;97.50;;;;;;5131271;28;20039;-71
2022/03/24 22:23:19;;;;;;;14.13;5.65;;;19.40;97.50;;;;;;5096573;28;20038;-70
2022/03/24 22:25:46;;;;;;;14.43;5.60;;;19.30;97.40;;;;;;5131463;28;20039;-70
2022/03/24 22:28:15;;;;;;;15.32;6.40;;;19.40;97.50;;;;;;5131672;28;20272;-70
2022/03/24 22:30:42;;;;;;;12.00;5.72;;;19.40;97.50;;;;;;5131755;28;20039;-70
2022/03/24 22:33:10;;;;;;;19.98;6.18;;;19.50;97.50;;;;;;5113247;28;20035;-70
2022/03/24 22:35:37;;;;;;;17.60;5.95;;;19.50;97.50;;;;;;5113412;28;20031;-70
2022/03/24 22:38:04;;;;;;;18.50;5.40;;;19.60;97.60;;;;;;5131375;28;20084;-70
2022/03/24 22:40:32;;;;;;;16.55;5.82;;;19.60;97.60;;;;;;5113069;28;20027;-70
2022/03/24 22:42:59;;;;;;;13.52;4.43;;;19.60;97.60;;;;;;5096270;28;20076;-70
2022/03/24 22:45:27;;;;;;;15.00;4.05;;;19.70;97.60;;;;;;5131364;28;20489;-70
2022/03/24 22:47:54;;;;;;;14.15;4.60;;;19.80;97.60;;;;;;5130808;28;20112;-70
2022/03/24 22:50:21;;;;;;;15.25;3.67;;;19.80;97.60;;;;;;5112994;28;20389;-71
2022/03/24 22:52:49;;;;;;;13.65;3.55;;;19.80;97.60;;;;;;5131440;28;20572;-70
2022/03/24 22:55:17;;;;;;;15.20;3.67;;;19.80;97.50;;;;;;5131409;28;20388;-70
2022/03/24 22:57:44;;;;;;;13.82;3.30;;;19.80;97.60;;;;;;5112934;28;20078;-70
2022/03/24 23:00:43;;;;;;;14.75;3.17;;;19.90;97.50;;;;;;5131305;28;20046;-69
2022/03/24 23:03:10;;;;;;;8.70;3.05;;;19.90;97.50;;;;;;5130757;28;20031;-69
2022/03/24 23:05:37;;;;;;;15.90;3.25;;;19.80;97.20;;;;;;5112794;28;20096;-70
2022/03/24 23:08:05;;;;;;;9.50;2.90;;;19.80;97.20;;;;;;5095949;28;20038;-70
2022/03/24 23:10:32;;;;;;;10.77;2.85;;;19.60;95.80;;;;;;5112772;28;20019;-70
2022/03/24 23:12:59;;;;;;;16.50;2.50;;;19.40;95.40;;;;;;5112839;28;20034;-70
2022/03/24 23:15:27;;;;;;;11.23;2.75;;;19.30;94.70;;;;;;5131121;28;20084;-70
2022/03/24 23:17:54;;;;;;;8.48;2.33;;;19.30;94.90;;;;;;5131084;28;20020;-70
2022/03/24 23:20:21;;;;;;;6.93;2.22;;;19.30;94.20;;;;;;5112885;28;20088;-69
2022/03/24 23:22:48;;;;;;;12.20;3.00;;;19.30;94.70;;;;;;5112428;28;20503;-69
2022/03/24 23:25:16;;;;;;;14.68;2.80;;;19.30;94.90;;;;;;5130854;28;20049;-69
2022/03/24 23:27:44;;;;;;;16.55;4.05;;;19.40;95.10;;;;;;5112753;28;20034;-69
2022/03/24 23:30:16;;;;;;;12.25;2.83;;;19.50;95.20;;;;;;5115127;27;20396;-69
2022/03/24 23:32:43;;;;;;;14.70;2.80;;;19.60;95.20;;;;;;5134124;27;20439;-69
2022/03/24 23:35:10;;;;;;;13.50;2.85;;;19.70;95.00;;;;;;5099515;27;20433;-69
2022/03/24 23:37:38;;;;;;;15.82;3.13;;;19.70;95.10;;;;;;5116090;27;20030;-69
2022/03/24 23:40:06;;;;;;;14.77;3.08;;;19.80;95.20;;;;;;5115973;27;20039;-69
2022/03/24 23:42:33;;;;;;;8.98;2.80;;;19.90;95.00;;;;;;5099355;27;20445;-70
2022/03/24 23:45:01;;;;;;;10.80;3.90;;;20.00;94.60;;;;;;5116166;27;20104;-70
2022/03/24 23:47:28;;;;;;;13.23;3.10;;;20.10;94.40;;;;;;5116329;27;20035;-69
2022/03/24 23:49:55;;;;;;;8.70;2.60;;;20.20;94.10;;;;;;5116365;27;20027;-69
2022/03/24 23:52:23;;;;;;;13.25;3.40;;;20.20;93.90;;;;;;5116246;27;20031;-69
2022/03/24 23:54:50;;;;;;;15.23;3.03;;;20.30;93.40;;;;;;5115671;27;20046;-69
2022/03/24 23:57:17;;;;;;;14.45;3.03;;;20.40;92.10;;;;;;5133960;27;20121;-68
2022/03/24 23:59:45;;;;;;;6.15;2.10;;;20.50;90.40;;;;;;5134137;27;20024;-68
